createdAt,value
2022-10-12T00:01:12.708Z,101538.78
2022-10-12T00:03:41.503Z,101537.00
2022-10-12T00:06:13.367Z,101541.44
2022-10-12T00:08:43.900Z,101544.19
2022-10-12T00:11:14.034Z,101547.66
2022-10-12T00:13:42.731Z,101544.19
2022-10-12T00:16:12.959Z,101543.44
2022-10-12T00:18:41.541Z,101545.28
2022-10-12T00:21:13.595Z,101540.03
2022-10-12T00:23:43.025Z,101542.69
2022-10-12T00:26:14.354Z,101545.28
2022-10-12T00:28:43.037Z,101539.97
2022-10-12T00:31:14.001Z,101542.81
2022-10-12T00:33:42.500Z,101543.78
2022-10-12T00:36:18.556Z,101534.97
2022-10-12T00:38:47.643Z,101533.22
2022-10-12T00:41:17.710Z,101535.88
2022-10-12T00:43:48.319Z,101540.38
2022-10-12T00:46:21.396Z,101542.22
2022-10-12T00:48:56.416Z,101540.50
2022-10-12T00:51:26.648Z,101539.72
2022-10-12T00:53:59.022Z,101539.03
2022-10-12T00:56:31.808Z,101546.16
2022-10-12T00:59:03.266Z,101541.13
2022-10-12T01:01:34.618Z,101540.44
2022-10-12T01:04:04.130Z,101541.38
2022-10-12T01:06:35.367Z,101539.59
2022-10-12T01:09:04.397Z,101543.97
2022-10-12T01:11:32.905Z,101543.09
2022-10-12T01:14:01.445Z,101543.28
2022-10-12T01:16:39.256Z,101543.38
2022-10-12T01:19:27.175Z,101546.03
2022-10-12T01:22:03.135Z,101544.12
2022-10-12T01:24:45.231Z,101539.81
2022-10-12T01:27:36.907Z,101545.16
2022-10-12T01:30:20.080Z,101546.13
2022-10-12T01:33:03.504Z,101554.16
2022-10-12T01:35:39.141Z,101550.72
2022-10-12T01:38:18.016Z,101558.66
2022-10-12T01:40:56.293Z,101556.00
2022-10-12T01:43:24.973Z,101555.09
2022-10-12T01:45:54.817Z,101547.22
2022-10-12T01:48:22.971Z,101556.00
2022-10-12T01:50:53.697Z,101548.06
2022-10-12T01:53:31.907Z,101558.66
2022-10-12T01:56:07.974Z,101550.78
2022-10-12T01:58:57.659Z,101562.22
2022-10-12T02:01:33.578Z,101549.84
2022-10-12T02:04:11.130Z,101542.88
2022-10-12T02:06:45.122Z,101542.00
2022-10-12T02:09:19.548Z,101545.47
2022-10-12T02:11:51.801Z,101543.69
2022-10-12T02:14:23.983Z,101541.06
2022-10-12T02:16:57.284Z,101538.41
2022-10-12T02:19:29.850Z,101535.84
2022-10-12T02:22:02.334Z,101526.19
2022-10-12T02:24:34.202Z,101523.59
2022-10-12T02:27:02.789Z,101530.78
2022-10-12T02:29:37.875Z,101531.78
2022-10-12T02:32:16.946Z,101526.62
2022-10-12T02:34:49.638Z,101520.41
2022-10-12T02:37:27.310Z,101525.94
2022-10-12T02:39:58.393Z,101517.16
2022-10-12T02:42:41.879Z,101508.44
2022-10-12T02:45:22.959Z,101509.53
2022-10-12T02:47:55.744Z,101509.72
2022-10-12T02:50:25.767Z,101514.25
2022-10-12T02:52:54.352Z,101512.41
2022-10-12T02:55:22.940Z,101506.25
2022-10-12T02:57:51.544Z,101509.97
2022-10-12T03:00:20.223Z,101502.25
2022-10-12T03:02:48.707Z,101500.59
2022-10-12T03:05:18.747Z,101501.63
2022-10-12T03:07:47.026Z,101505.19
2022-10-12T03:10:15.599Z,101510.47
2022-10-12T03:12:49.118Z,101511.47
2022-10-12T03:15:18.711Z,101499.34
2022-10-12T03:17:47.246Z,101508.19
2022-10-12T03:20:15.412Z,101503.03
2022-10-12T03:22:44.902Z,101498.84
2022-10-12T03:25:13.389Z,101501.59
2022-10-12T03:27:41.561Z,101506.00
2022-10-12T03:30:11.705Z,101505.19
2022-10-12T03:32:40.890Z,101504.41
2022-10-12T03:35:10.099Z,101505.31
2022-10-12T03:37:38.543Z,101495.72
2022-10-12T03:40:10.649Z,101498.44
2022-10-12T03:42:38.830Z,101494.97
2022-10-12T03:45:07.845Z,101498.59
2022-10-12T03:47:38.035Z,101502.25
2022-10-12T03:50:07.565Z,101504.19
2022-10-12T03:52:35.749Z,101494.56
2022-10-12T03:55:03.921Z,101497.25
2022-10-12T03:57:33.738Z,101500.81
2022-10-12T04:00:02.112Z,101500.97
2022-10-12T04:02:40.210Z,101503.69
2022-10-12T04:05:09.522Z,101501.09
2022-10-12T04:07:38.018Z,101499.38
2022-10-12T04:10:07.563Z,101503.00
2022-10-12T04:12:37.346Z,101499.47
2022-10-12T04:15:06.346Z,101502.84
2022-10-12T04:17:34.526Z,101504.53
2022-10-12T04:20:03.039Z,101494.78
2022-10-12T04:22:31.185Z,101489.44
2022-10-12T04:24:59.356Z,101502.59
2022-10-12T04:27:27.842Z,101507.00
2022-10-12T04:29:57.401Z,101500.91
2022-10-12T04:32:25.636Z,101498.34
2022-10-12T04:34:54.047Z,101495.81
2022-10-12T04:37:22.132Z,101490.63
2022-10-12T04:39:50.289Z,101496.88
2022-10-12T04:42:21.833Z,101489.94
2022-10-12T04:44:50.112Z,101490.00
2022-10-12T04:47:20.134Z,101491.72
2022-10-12T04:49:48.322Z,101492.62
2022-10-12T04:52:16.828Z,101491.75
2022-10-12T04:54:45.389Z,101502.41
2022-10-12T04:57:13.570Z,101502.47
2022-10-12T04:59:41.828Z,101509.59
2022-10-12T05:02:10.256Z,101502.69
2022-10-12T05:04:39.767Z,101506.22
2022-10-12T05:07:07.924Z,101504.47
2022-10-12T05:09:36.410Z,101504.47
2022-10-12T05:12:04.709Z,101504.47
2022-10-12T05:14:35.081Z,101500.09
2022-10-12T05:17:04.524Z,101501.81
2022-10-12T05:19:32.733Z,101501.78
2022-10-12T05:22:02.625Z,101506.12
2022-10-12T05:24:31.063Z,101507.00
2022-10-12T05:26:59.193Z,101507.00
2022-10-12T05:29:27.373Z,101500.84
2022-10-12T05:31:55.752Z,101503.44
2022-10-12T05:34:23.907Z,101500.81
2022-10-12T05:36:52.021Z,101504.31
2022-10-12T05:39:21.857Z,101508.72
2022-10-12T05:41:51.373Z,101508.00
2022-10-12T05:44:19.553Z,101519.38
2022-10-12T05:46:48.307Z,101514.00
2022-10-12T05:49:16.390Z,101512.97
2022-10-12T05:51:44.491Z,101513.72
2022-10-12T05:54:13.124Z,101515.34
2022-10-12T05:56:42.779Z,101507.31
2022-10-12T05:59:11.721Z,101509.91
2022-10-12T06:01:40.399Z,101515.09
2022-10-12T06:04:08.944Z,101508.88
2022-10-12T06:06:37.073Z,101504.19
2022-10-12T06:09:05.225Z,101518.97
2022-10-12T06:11:36.294Z,101519.72
2022-10-12T06:14:06.499Z,101517.72
2022-10-12T06:16:35.159Z,101510.53
2022-10-12T06:19:04.604Z,101510.38
2022-10-12T06:21:34.294Z,101517.19
2022-10-12T06:24:03.056Z,101518.75
2022-10-12T06:26:31.370Z,101520.38
2022-10-12T06:29:00.849Z,101520.12
2022-10-12T06:31:32.327Z,101518.09
2022-10-12T06:34:00.513Z,101516.03
2022-10-12T06:36:28.704Z,101514.06
2022-10-12T06:38:57.224Z,101511.25
2022-10-12T06:41:25.551Z,101519.72
2022-10-12T06:43:53.714Z,101517.47
2022-10-12T06:46:22.228Z,101514.38
2022-10-12T06:48:51.731Z,101524.56
2022-10-12T06:51:20.364Z,101524.16
2022-10-12T06:53:49.209Z,101525.41
2022-10-12T06:56:17.533Z,101524.87
2022-10-12T06:58:45.979Z,101521.91
2022-10-12T07:01:14.492Z,101526.78
2022-10-12T07:03:42.659Z,101525.31
2022-10-12T07:06:14.081Z,101522.97
2022-10-12T07:08:43.210Z,101517.87
2022-10-12T07:11:15.062Z,101526.81
2022-10-12T07:13:48.535Z,101514.97
2022-10-12T07:16:17.428Z,101516.31
2022-10-12T07:18:46.694Z,101531.53
2022-10-12T07:21:16.413Z,101527.25
2022-10-12T07:23:46.132Z,101526.75
2022-10-12T07:26:15.864Z,101532.22
2022-10-12T07:28:53.739Z,101531.69
2022-10-12T07:31:30.095Z,101532.66
2022-10-12T07:34:01.339Z,101532.75
2022-10-12T07:36:54.303Z,101532.94
2022-10-12T07:39:19.357Z,101532.28
2022-10-12T07:41:47.805Z,101534.19
2022-10-12T07:44:16.670Z,101536.16
2022-10-12T07:46:44.838Z,101537.06
2022-10-12T07:49:13.903Z,101528.22
2022-10-12T07:51:43.919Z,101535.28
2022-10-12T07:54:15.326Z,101525.69
2022-10-12T07:56:46.665Z,101527.03
2022-10-12T07:59:15.154Z,101531.78
2022-10-12T08:01:43.402Z,101528.31
2022-10-12T08:04:12.330Z,101525.78
2022-10-12T08:06:44.785Z,101523.09
2022-10-12T08:09:13.633Z,101518.88
2022-10-12T08:11:42.491Z,101520.47
2022-10-12T08:14:14.559Z,101513.25
2022-10-12T08:16:43.625Z,101520.28
2022-10-12T08:19:12.557Z,101521.16
2022-10-12T08:21:41.253Z,101523.88
2022-10-12T08:24:13.608Z,101524.03
2022-10-12T08:26:42.032Z,101526.06
2022-10-12T08:29:11.547Z,101525.44
2022-10-12T08:31:40.726Z,101527.38
2022-10-12T08:34:09.650Z,101518.78
2022-10-12T08:36:38.472Z,101522.34
2022-10-12T08:39:08.670Z,101519.41
2022-10-12T08:41:54.037Z,101511.78
2022-10-12T08:44:41.132Z,101508.44
2022-10-12T08:47:17.036Z,101501.47
2022-10-12T08:49:49.824Z,101510.03
2022-10-12T08:52:30.015Z,101508.06
2022-10-12T08:55:06.387Z,101502.25
2022-10-12T08:57:36.382Z,101509.13
2022-10-12T09:00:05.727Z,101505.28
2022-10-12T09:02:50.490Z,101504.22
2022-10-12T09:05:25.195Z,101495.09
2022-10-12T09:07:58.518Z,101485.22
2022-10-12T09:10:45.296Z,101489.72
2022-10-12T09:13:32.257Z,101487.66
2022-10-12T09:16:03.860Z,101489.12
2022-10-12T09:18:41.120Z,101486.41
2022-10-12T09:21:12.665Z,101482.91
2022-10-12T09:23:44.219Z,101486.31
2022-10-12T09:26:17.048Z,101483.31
2022-10-12T09:28:49.789Z,101477.87
2022-10-12T09:31:38.531Z,101477.09
2022-10-12T09:34:08.799Z,101475.78
2022-10-12T09:36:39.700Z,101468.72
2022-10-12T09:39:14.330Z,101467.75
2022-10-12T09:41:44.780Z,101470.47
2022-10-12T09:44:24.015Z,101464.97
2022-10-12T09:46:56.797Z,101460.84
2022-10-12T09:49:40.713Z,101461.91
2022-10-12T09:52:09.937Z,101452.88
2022-10-12T09:54:41.745Z,101451.16
2022-10-12T09:57:10.800Z,101455.56
2022-10-12T09:59:45.864Z,101444.53
2022-10-12T10:02:16.982Z,101456.25
2022-10-12T10:04:47.234Z,101452.56
2022-10-12T10:07:28.210Z,101456.91
2022-10-12T10:10:28.468Z,101460.59
2022-10-12T10:13:01.263Z,101462.06
2022-10-12T10:15:34.596Z,101467.44
2022-10-12T10:18:05.953Z,101457.59
2022-10-12T10:20:37.913Z,101460.87
2022-10-12T10:23:06.400Z,101452.16
2022-10-12T10:25:35.710Z,101455.22
2022-10-12T10:28:23.291Z,101450.41
2022-10-12T10:31:05.016Z,101449.03
2022-10-12T10:33:34.846Z,101452.44
2022-10-12T10:36:07.768Z,101457.00
2022-10-12T10:38:57.365Z,101454.28
2022-10-12T10:41:29.118Z,101446.06
2022-10-12T10:43:57.427Z,101439.97
2022-10-12T10:46:31.193Z,101438.72
2022-10-12T10:49:06.450Z,101433.91
2022-10-12T10:51:44.282Z,101438.19
2022-10-12T10:54:17.574Z,101429.97
2022-10-12T10:56:47.704Z,101438.72
2022-10-12T10:59:26.568Z,101431.47
2022-10-12T11:02:01.066Z,101415.31
2022-10-12T11:04:33.775Z,101420.41
2022-10-12T11:07:13.670Z,101422.16
2022-10-12T11:09:44.901Z,101423.25
2022-10-12T11:12:18.245Z,101417.88
2022-10-12T11:14:51.669Z,101418.84
2022-10-12T11:17:28.189Z,101415.03
2022-10-12T11:20:05.139Z,101410.25
2022-10-12T11:22:42.101Z,101407.41
2022-10-12T11:25:19.494Z,101410.81
2022-10-12T11:27:53.467Z,101409.47
2022-10-12T11:30:24.086Z,101395.69
2022-10-12T11:33:01.041Z,101400.72
2022-10-12T11:35:32.718Z,101400.44
2022-10-12T11:38:04.147Z,101389.09
2022-10-12T11:41:02.405Z,101390.56
2022-10-12T11:43:31.414Z,101384.62
2022-10-12T11:46:03.915Z,101382.37
2022-10-12T11:48:39.263Z,101390.66
2022-10-12T11:51:08.158Z,101383.13
2022-10-12T11:53:44.495Z,101383.47
2022-10-12T11:56:20.440Z,101374.78
2022-10-12T11:59:01.074Z,101383.06
2022-10-12T12:01:44.640Z,101372.00
2022-10-12T12:07:46.284Z,101365.06
2022-10-12T12:11:03.604Z,101370.62
2022-10-12T12:13:32.453Z,101352.59
2022-10-12T12:16:33.190Z,101355.47
2022-10-12T12:19:40.567Z,101349.06
2022-10-12T12:22:48.431Z,101342.50
2022-10-12T12:25:20.202Z,101343.06
2022-10-12T12:27:52.023Z,101333.38
2022-10-12T12:30:33.995Z,101330.97
2022-10-12T12:33:05.420Z,101330.66
2022-10-12T12:35:40.661Z,101323.56
2022-10-12T12:38:19.878Z,101325.09
2022-10-12T12:41:01.433Z,101324.06
2022-10-12T12:44:02.055Z,101322.50
2022-10-12T12:47:32.741Z,101310.78
2022-10-12T12:50:00.699Z,101313.81
2022-10-12T12:52:32.931Z,101308.47
2022-10-12T12:55:31.097Z,101300.19
2022-10-12T12:58:26.095Z,101293.63
2022-10-12T13:01:18.450Z,101297.44
2022-10-12T13:04:03.687Z,101287.00
2022-10-12T13:07:18.696Z,101284.53
2022-10-12T13:10:08.721Z,101286.94
2022-10-12T13:13:03.098Z,101288.66
2022-10-12T13:15:43.730Z,101284.94
2022-10-12T13:18:52.454Z,101282.66
2022-10-12T13:21:24.428Z,101278.97
2022-10-12T13:24:02.257Z,101270.91
2022-10-12T13:26:33.228Z,101265.09
2022-10-12T13:29:07.342Z,101271.66
2022-10-12T13:31:42.113Z,101270.28
2022-10-12T13:34:16.936Z,101271.41
2022-10-12T13:36:54.002Z,101268.31
2022-10-12T13:39:46.269Z,101263.81
2022-10-12T13:42:31.469Z,101257.00
2022-10-12T13:45:13.406Z,101254.69
2022-10-12T13:47:47.448Z,101256.69
2022-10-12T13:50:20.718Z,101249.44
2022-10-12T13:52:55.652Z,101246.72
2022-10-12T13:55:29.211Z,101247.59
2022-10-12T13:57:58.906Z,101242.34
2022-10-12T14:00:28.474Z,101244.34
2022-10-12T14:02:58.907Z,101236.81
2022-10-12T14:05:30.214Z,101230.16
2022-10-12T14:08:03.589Z,101233.16
2022-10-12T14:10:35.018Z,101227.75
2022-10-12T14:13:05.650Z,101224.03
2022-10-12T14:15:35.662Z,101222.75
2022-10-12T14:18:05.071Z,101229.72
2022-10-12T14:20:37.202Z,101225.84
2022-10-12T14:23:14.130Z,101216.87
2022-10-12T14:25:53.428Z,101219.59
2022-10-12T14:28:30.873Z,101214.03
2022-10-12T14:30:59.769Z,101218.31
2022-10-12T14:33:29.050Z,101210.31
2022-10-12T14:36:16.354Z,101211.03
2022-10-12T14:38:46.994Z,101209.03
2022-10-12T14:41:33.610Z,101203.25
2022-10-12T14:44:13.260Z,101212.50
2022-10-12T14:46:44.499Z,101202.84
2022-10-12T14:49:18.611Z,101210.84
2022-10-12T14:51:47.449Z,101208.84
2022-10-12T14:54:15.905Z,101208.28
2022-10-12T14:56:44.171Z,101201.34
2022-10-12T14:59:13.787Z,101201.62
2022-10-12T15:01:43.491Z,101201.34
2022-10-12T15:04:14.444Z,101195.69
2022-10-12T15:06:46.986Z,101200.44
2022-10-12T15:09:18.063Z,101200.16
2022-10-12T15:11:46.549Z,101202.59
2022-10-12T15:14:16.165Z,101196.81
2022-10-12T15:16:44.456Z,101208.62
2022-10-12T15:19:13.149Z,101201.41
2022-10-12T15:21:41.437Z,101207.09
2022-10-12T15:24:15.733Z,101192.91
2022-10-12T15:26:44.244Z,101200.16
2022-10-12T15:29:12.698Z,101203.28
2022-10-12T15:31:42.321Z,101199.03
2022-10-12T15:34:13.304Z,101190.94
2022-10-12T15:36:41.650Z,101191.47
2022-10-12T15:39:12.997Z,101192.47
2022-10-12T15:41:41.502Z,101194.44
2022-10-12T15:44:12.446Z,101205.19
2022-10-12T15:46:43.869Z,101196.09
2022-10-12T15:49:15.124Z,101196.91
2022-10-12T15:51:49.259Z,101197.16
2022-10-12T15:54:17.830Z,101186.03
2022-10-12T15:56:46.014Z,101189.84
2022-10-12T15:59:14.207Z,101183.84
2022-10-12T16:01:44.829Z,101188.66
2022-10-12T16:04:15.687Z,101183.78
2022-10-12T16:06:43.849Z,101179.56
2022-10-12T16:09:12.217Z,101180.62
2022-10-12T16:11:40.708Z,101181.69
2022-10-12T16:14:11.249Z,101179.31
2022-10-12T16:16:39.449Z,101183.84
2022-10-12T16:19:09.455Z,101179.63
2022-10-12T16:21:37.641Z,101178.22
2022-10-12T16:24:06.114Z,101179.22
2022-10-12T16:26:34.613Z,101181.94
2022-10-12T16:29:03.080Z,101169.66
2022-10-12T16:31:31.304Z,101174.91
2022-10-12T16:33:59.750Z,101176.59
2022-10-12T16:36:29.357Z,101166.47
2022-10-12T16:38:57.546Z,101179.03
2022-10-12T16:41:29.166Z,101177.06
2022-10-12T16:43:59.949Z,101179.87
2022-10-12T16:46:28.321Z,101176.41
2022-10-12T16:48:56.610Z,101174.34
2022-10-12T16:51:24.737Z,101172.37
2022-10-12T16:53:54.525Z,101176.44
2022-10-12T16:56:22.678Z,101171.06
2022-10-12T16:58:50.754Z,101174.56
2022-10-12T17:01:19.225Z,101178.91
2022-10-12T17:03:47.429Z,101173.38
2022-10-12T17:06:15.590Z,101173.94
2022-10-12T17:08:44.089Z,101180.09
2022-10-12T17:11:16.990Z,101176.50
2022-10-12T17:13:49.120Z,101174.62
2022-10-12T17:16:36.459Z,101175.44
2022-10-12T17:19:05.053Z,101173.91
2022-10-12T17:21:33.286Z,101181.19
2022-10-12T17:24:02.560Z,101172.44
2022-10-12T17:26:32.450Z,101174.28
2022-10-12T17:29:00.752Z,101165.81
2022-10-12T17:31:29.002Z,101163.03
2022-10-12T17:33:58.411Z,101164.78
2022-10-12T17:36:28.344Z,101159.66
2022-10-12T17:38:57.955Z,101160.72
2022-10-12T17:41:27.935Z,101161.88
2022-10-12T17:43:57.794Z,101166.59
2022-10-12T17:46:25.970Z,101165.00
2022-10-12T17:48:54.339Z,101162.44
2022-10-12T17:51:22.871Z,101165.41
2022-10-12T17:53:51.112Z,101168.91
2022-10-12T17:56:19.865Z,101159.41
2022-10-12T17:58:48.293Z,101162.72
2022-10-12T18:01:18.041Z,101162.72
2022-10-12T18:03:47.718Z,101156.41
2022-10-12T18:06:18.705Z,101149.25
2022-10-12T18:08:47.682Z,101146.59
2022-10-12T18:11:17.853Z,101157.09
2022-10-12T18:13:48.132Z,101153.41
2022-10-12T18:16:21.348Z,101145.81
2022-10-12T18:18:51.949Z,101152.66
2022-10-12T18:21:23.408Z,101160.38
2022-10-12T18:23:53.830Z,101155.03
2022-10-12T18:26:22.825Z,101161.34
2022-10-12T18:28:52.791Z,101157.88
2022-10-12T18:31:24.814Z,101161.63
2022-10-12T18:33:53.983Z,101161.53
2022-10-12T18:36:22.919Z,101157.25
2022-10-12T18:38:51.202Z,101152.88
2022-10-12T18:41:22.957Z,101153.09
2022-10-12T18:43:55.358Z,101153.16
2022-10-12T18:46:26.823Z,101155.84
2022-10-12T18:48:55.115Z,101154.22
2022-10-12T18:51:27.085Z,101151.66
2022-10-12T18:53:55.557Z,101147.28
2022-10-12T18:56:24.617Z,101145.69
2022-10-12T18:58:53.332Z,101149.31
2022-10-12T19:01:24.423Z,101157.62
2022-10-12T19:03:55.620Z,101151.63
2022-10-12T19:06:25.870Z,101151.91
2022-10-12T19:08:56.181Z,101156.72
2022-10-12T19:11:26.075Z,101153.47
2022-10-12T19:13:57.025Z,101150.28
2022-10-12T19:16:25.629Z,101144.25
2022-10-12T19:18:58.502Z,101140.00
2022-10-12T19:21:27.937Z,101140.19
2022-10-12T19:23:56.508Z,101133.31
2022-10-12T19:26:27.444Z,101139.84
2022-10-12T19:28:57.351Z,101144.63
2022-10-12T19:31:28.335Z,101136.00
2022-10-12T19:33:59.962Z,101137.94
2022-10-12T19:36:29.115Z,101138.78
2022-10-12T19:38:58.057Z,101136.22
2022-10-12T19:41:27.763Z,101134.50
2022-10-12T19:43:55.942Z,101127.47
2022-10-12T19:46:24.971Z,101127.47
2022-10-12T19:48:54.978Z,101125.72
2022-10-12T19:51:27.863Z,101116.00
2022-10-12T19:53:57.053Z,101112.50
2022-10-12T19:56:26.066Z,101122.41
2022-10-12T19:58:57.520Z,101116.31
2022-10-12T20:01:28.266Z,101107.56
2022-10-12T20:03:56.853Z,101109.38
2022-10-12T20:06:29.205Z,101099.56
2022-10-12T20:08:59.337Z,101098.59
2022-10-12T20:11:27.527Z,101100.41
2022-10-12T20:13:57.032Z,101100.69
2022-10-12T20:16:25.708Z,101103.47
2022-10-12T20:18:54.095Z,101099.31
2022-10-12T20:21:23.954Z,101095.88
2022-10-12T20:23:53.842Z,101100.31
2022-10-12T20:26:24.485Z,101103.00
2022-10-12T20:28:54.442Z,101093.59
2022-10-12T20:31:24.761Z,101092.62
2022-10-12T20:33:53.931Z,101101.50
2022-10-12T20:36:24.255Z,101098.81
2022-10-12T20:38:54.697Z,101095.94
2022-10-12T20:41:23.774Z,101097.87
2022-10-12T20:43:55.554Z,101098.72
2022-10-12T20:46:24.639Z,101106.94
2022-10-12T20:48:58.664Z,101104.37
2022-10-12T20:51:29.694Z,101107.31
2022-10-12T20:54:01.135Z,101104.84
2022-10-12T20:56:30.862Z,101108.66
2022-10-12T20:59:00.373Z,101102.66
2022-10-12T21:01:29.390Z,101107.53
2022-10-12T21:03:58.064Z,101098.28
2022-10-12T21:06:26.964Z,101102.94
2022-10-12T21:08:59.174Z,101095.44
2022-10-12T21:11:31.425Z,101090.47
2022-10-12T21:14:00.097Z,101084.66
2022-10-12T21:16:28.699Z,101092.25
2022-10-12T21:18:57.202Z,101097.13
2022-10-12T21:21:25.573Z,101096.44
2022-10-12T21:23:55.983Z,101097.59
2022-10-12T21:26:25.925Z,101096.84
2022-10-12T21:28:55.832Z,101100.59
2022-10-12T21:31:28.172Z,101095.63
2022-10-12T21:34:00.995Z,101099.62
2022-10-12T21:36:30.794Z,101094.66
2022-10-12T21:39:00.214Z,101099.28
2022-10-12T21:41:30.788Z,101095.03
2022-10-12T21:44:00.371Z,101096.16
2022-10-12T21:46:32.005Z,101092.91
2022-10-12T21:49:01.715Z,101094.91
2022-10-12T21:51:32.417Z,101095.25
2022-10-12T21:54:00.792Z,101092.88
2022-10-12T21:56:30.972Z,101094.81
2022-10-12T21:59:02.575Z,101103.19
2022-10-12T22:01:34.595Z,101098.19
2022-10-12T22:04:05.036Z,101098.53
2022-10-12T22:06:33.631Z,101093.25
2022-10-12T22:09:04.968Z,101088.63
2022-10-12T22:11:35.359Z,101086.81
2022-10-12T22:14:07.358Z,101090.13
2022-10-12T22:16:36.775Z,101083.59
2022-10-12T22:19:07.844Z,101082.41
2022-10-12T22:21:37.235Z,101079.91
2022-10-12T22:24:05.958Z,101076.31
2022-10-12T22:26:35.265Z,101071.84
2022-10-12T22:29:07.553Z,101079.66
2022-10-12T22:31:36.619Z,101076.91
2022-10-12T22:34:05.508Z,101079.38
2022-10-12T22:36:36.473Z,101075.97
2022-10-12T22:39:06.361Z,101082.03
2022-10-12T22:41:34.652Z,101089.16
2022-10-12T22:44:02.867Z,101075.88
2022-10-12T22:46:32.627Z,101080.59
2022-10-12T22:49:02.645Z,101072.72
2022-10-12T22:51:32.991Z,101079.75
2022-10-12T22:54:02.253Z,101069.19
2022-10-12T22:56:31.971Z,101069.09
2022-10-12T22:59:02.225Z,101067.47
2022-10-12T23:01:32.058Z,101064.13
2022-10-12T23:04:00.522Z,101066.94
2022-10-12T23:06:28.714Z,101061.88
2022-10-12T23:08:57.165Z,101059.66
2022-10-12T23:11:27.212Z,101064.34
2022-10-12T23:13:56.106Z,101063.47
2022-10-12T23:16:26.857Z,101074.97
2022-10-12T23:18:59.509Z,101073.56
2022-10-12T23:21:29.988Z,101069.62
2022-10-12T23:23:59.681Z,101071.66
2022-10-12T23:26:29.590Z,101067.19
2022-10-12T23:28:58.489Z,101064.63
2022-10-12T23:31:28.825Z,101072.69
2022-10-12T23:34:01.841Z,101073.53
2022-10-12T23:36:30.359Z,101064.88
2022-10-12T23:39:01.260Z,101064.94
2022-10-12T23:41:29.833Z,101057.91
2022-10-12T23:43:58.001Z,101066.81
2022-10-12T23:46:26.620Z,101064.41
2022-10-12T23:48:56.509Z,101061.00
2022-10-12T23:51:26.045Z,101045.06
2022-10-12T23:53:54.504Z,101052.94
2022-10-12T23:56:22.686Z,101045.91
2022-10-12T23:58:50.842Z,101055.72
